Flight Track Log - Related Links

Times and Time Zones

All times are in EDT time to prevent confusion due to time zone crossing. See the DAL3938 flight status page for this flight to view local times or setup timezone preferences in your user account.


Time Position Orientation Groundspeed Altitude Reporting Facility
EDT Latitude Longitude Course Direction KTS MPH feet Rate Location/Type
Sat 07:51:25 AM 42.9500 -71.4167 270° West 154 177 1,200  Level KA90
Sat 07:52:19 AM 43.0000 -71.4000 14° North 193 222 3,100 2,178 Climbing KA90
Sat 07:53:40 AM 43.0714 -71.4481 334° Northwest 268 308 6,100 2,383 Climbing Boston Center
Sat 07:54:00 AM 42.9500 -71.9501 270° West  Level FlightAware Approximate
Sat 07:54:40 AM 43.0928 -71.5303 290° West 254 292 8,700  Level Boston Center
Sat 07:55:00 AM 42.9501 -72.0805 270° West  Level FlightAware Approximate
Sat 07:55:40 AM 43.1000 -71.6439 275° West 258 297 10,600  Level Boston Center
Sat 07:56:00 AM 42.9500 -72.2109 270° West  Level FlightAware Approximate
Sat 07:56:40 AM 43.1028 -71.7578 272° West 310 357 12,500  Level Boston Center
Sat 07:57:40 AM 43.1078 -71.8911 273° West 327 376 14,800 2,000 Climbing Boston Center
Sat 07:58:40 AM 43.1122 -72.0050 273° West 333 383 16,500 1,500 Climbing Boston Center
Sat 07:59:40 AM 43.1150 -72.1500 272° West 338 389 17,800 1,350 Climbing Boston Center
Sat 08:00:40 AM 43.1275 -72.2750 278° West 350 403 19,200 1,350 Climbing Boston Center
Sat 08:01:40 AM 43.1297 -72.4144 271° West 350 403 20,500 1,250 Climbing Boston Center
Sat 08:02:40 AM 43.1381 -72.5511 275° West 355 409 21,700 1,150 Climbing Boston Center
Sat 08:03:40 AM 43.1317 -72.6792 266° West 368 423 22,800 1,100 Climbing Boston Center
Sat 08:04:40 AM 43.1333 -72.8214 271° West 375 432 23,900 950 Climbing Boston Center
Sat 08:05:40 AM 43.1389 -72.9864 273° West 391 450 24,700 800 Climbing Boston Center
Sat 08:06:40 AM 43.1422 -73.1317 272° West 384 442 25,500 750 Climbing Boston Center
Sat 08:07:40 AM 43.1456 -73.2825 272° West 384 442 26,200 850 Climbing Boston Center
Sat 08:08:40 AM 43.1464 -73.4133 271° West 384 442 27,200 900 Climbing Boston Center
Sat 08:09:40 AM 43.1494 -73.5583 272° West 384 442 28,000 400 Climbing Boston Center
Sat 08:10:40 AM 43.1500 -73.7094 270° West 390 449 28,000 50 Level Boston Center
Sat 08:11:40 AM 43.1500 -73.8831 270° West 404 465 28,100 550 Climbing Boston Center
Sat 08:12:40 AM 43.1519 -74.0339 271° West 404 465 29,100 950 Climbing Boston Center
Sat 08:13:40 AM 43.1561 -74.1847 272° West 404 465 30,000 450 Climbing Boston Center
Sat 08:14:40 AM 43.1578 -74.3328 271° West 404 465 30,000  Level Boston Center
Sat 08:15:40 AM 43.1594 -74.4839 271° West 404 465 30,000  Level Boston Center
Sat 08:16:40 AM 43.1608 -74.6375 271° West 404 465 30,000  Level Boston Center
Sat 08:17:40 AM 43.1619 -74.7942 271° West 404 465 30,000  Level Boston Center
Sat 08:18:40 AM 43.1611 -74.9308 270° West 404 465 30,000  Level Boston Center
Sat 08:19:40 AM 43.1617 -75.0903 270° West 404 465 30,000  Level Boston Center
Sat 08:20:40 AM 43.1639 -75.2497 271° West 409 471 30,000  Level Boston Center
Sat 08:21:40 AM 43.1608 -75.3750 268° West 409 471 30,000  Level Boston Center
Sat 08:22:40 AM 43.1642 -75.5631 271° West 414 476 30,000  Level Boston Center
Sat 08:23:40 AM 43.1619 -75.7222 269° West 420 483 30,000  Level Boston Center
Sat 08:26:09 AM 43.1622 -76.1256 270° West 419 482 30,000  Level Cleveland Center
Sat 08:27:09 AM 43.1533 -76.2797 266° West 419 482 30,000  Level Cleveland Center
Sat 08:28:09 AM 43.1406 -76.4372 264° West 419 482 30,000  Level Cleveland Center
Sat 08:29:09 AM 43.1272 -76.5975 264° West 424 488 30,000  Level Cleveland Center
Sat 08:30:09 AM 43.1133 -76.7378 262° West 424 488 30,000  Level Cleveland Center
Sat 08:31:09 AM 43.0997 -76.8981 263° West 430 495 30,000  Level Cleveland Center
Sat 08:32:09 AM 43.0817 -77.0583 261° West 430 495 30,000  Level Cleveland Center
Sat 08:33:09 AM 43.0636 -77.2183 261° West 430 495 30,000  Level Cleveland Center
Sat 08:34:09 AM 43.0494 -77.3783 263° West 430 495 30,000  Level Cleveland Center
Sat 08:35:09 AM 43.0308 -77.5414 261° West 430 495 30,000  Level Cleveland Center
Sat 08:36:09 AM 43.0142 -77.7011 262° West 430 495 30,000  Level Cleveland Center
Sat 08:37:09 AM 42.9953 -77.8639 261° West 430 495 30,000  Level Cleveland Center
Sat 08:38:09 AM 42.9761 -78.0292 261° West 430 495 30,000  Level Cleveland Center
Sat 08:39:09 AM 42.9564 -78.1889 260° West 430 495 30,000  Level Cleveland Center
Sat 08:40:09 AM 42.9389 -78.3514 262° West 430 495 30,000  Level Cleveland Center
Sat 08:41:09 AM 42.9189 -78.5136 260° West 430 495 30,000  Level Cleveland Center
Sat 08:42:09 AM 42.9008 -78.6786 262° West 430 495 30,000  Level Cleveland Center
Sat 08:43:09 AM 42.8806 -78.8381 260° West 430 495 30,000  Level Cleveland Center
Sat 08:44:09 AM 42.8619 -79.0000 261° West 430 495 30,000  Level Cleveland Center
Sat 08:45:09 AM 42.8392 -79.1619 259° West 430 495 30,000  Level Cleveland Center
Sat 08:46:09 AM 42.8222 -79.3236 262° West 430 495 30,000  Level Cleveland Center
Sat 08:47:09 AM 42.8031 -79.4881 261° West 430 495 30,000 -150 Level Cleveland Center
Sat 08:48:09 AM 42.7794 -79.6497 259° West 430 495 29,700 -300 Descending Cleveland Center
Sat 08:49:09 AM 42.7597 -79.8111 261° West 435 501 29,400 -300 Descending Cleveland Center
Sat 08:50:09 AM 42.7461 -79.9781 264° West 435 501 29,100 -350 Descending Cleveland Center
Sat 08:51:09 AM 42.7386 -80.1506 267° West 449 517 28,700 -350 Descending Cleveland Center
Sat 08:52:09 AM 42.7308 -80.3147 266° West 457 526 28,400 -300 Descending Cleveland Center
Sat 08:53:09 AM 42.7250 -80.4956 268° West 442 509 28,100 -200 Descending Cleveland Center
Sat 08:54:09 AM 42.7164 -80.6567 266° West 437 503 28,000 -250 Descending Cleveland Center
Sat 08:55:09 AM 42.7081 -80.8206 266° West 437 503 27,600 -450 Descending Cleveland Center
Sat 08:56:09 AM 42.6950 -80.9842 264° West 443 510 27,100 -500 Descending Cleveland Center
Sat 08:57:09 AM 42.6775 -81.1508 262° West 443 510 26,600 -550 Descending Cleveland Center
Sat 08:58:09 AM 42.6581 -81.3144 261° West 448 516 26,000 -550 Descending Cleveland Center
Sat 08:59:09 AM 42.6381 -81.4750 260° West 448 516 25,500 -500 Descending Cleveland Center
Sat 09:00:09 AM 42.6178 -81.6411 261° West 448 516 25,000 -1,100 Descending Cleveland Center
Sat 09:01:09 AM 42.5994 -81.8072 262° West 448 516 23,300 -2,100 Descending Cleveland Center
Sat 09:02:09 AM 42.5792 -81.9647 260° West 448 516 20,800 -2,500 Descending Cleveland Center
Sat 09:03:09 AM 42.5603 -82.1194 261° West 438 504 18,300 -2,480 Descending Cleveland Center
Sat 09:03:24 AM 42.5578 -82.1531 264° West 422 486 17,700 -2,077 Descending Cleveland Center
Sat 09:04:01 AM 42.5461 -82.2489 261° West 408 470 16,500 -2,204 Descending Cleveland Center
Sat 09:05:02 AM 42.5292 -82.4006 261° West 377 434 14,100 -2,164 Descending Cleveland Center
Sat 09:06:03 AM 42.5125 -82.5381 261° West 374 430 12,100 -1,357 Descending Cleveland Center
Sat 09:06:57 AM 42.4728 -82.6494 244° Southwest 334 384 11,500 -991 Descending Cleveland Center
Sat 09:07:58 AM 42.4378 -82.7467 244° Southwest 280 322 10,200 -1,594 Descending Cleveland Center
Sat 09:09:05 AM 42.4150 -82.8528 254° West 267 307 8,100 -1,875 Descending Cleveland Center
Sat 09:10:06 AM 42.4044 -82.9564 262° West 262 302 6,200 -1,082 Descending Cleveland Center
Sat 09:11:07 AM 42.3900 -83.0517 258° West 256 295 5,900 -1,220 Descending Cleveland Center
Sat 09:12:09 AM 42.3692 -83.1406 252° West 258 297 3,700 -1,623 Descending Cleveland Center
Sat 09:13:09 AM 42.3342 -83.2178 239° Southwest 253 291 2,600 -600 Descending Cleveland Center
Sat 09:14:09 AM 42.2994 -83.2756 231° Southwest 186 214 2,500 -100 Descending Cleveland Center

Login

Don't have an account? Register now (free) for customized features, flight alerts, and more!